Time;durP1;ratioP1;P1;durP2;ratioP2;P2;SDS_P1;SDS_P2;PMS_P1;PMS_P2;Temp;Humidity;BMP_temperature;BMP_pressure;BME280_temperature;BME280_humidity;BME280_pressure;Samples;Min_cycle;Max_cycle;Signal;HPM_P1;HPM_P2
2022/12/13 00:01:26;;;;;;;59.55;30.70;;;-2.30;99.90;;;;;;5083693;28;20394;-74
2022/12/13 00:03:52;;;;;;;55.05;30.05;;;-2.30;99.90;;;;;;5077034;28;20907;-74
2022/12/13 00:06:18;;;;;;;57.35;29.73;;;-2.30;99.90;;;;;;5083730;28;20409;-74
2022/12/13 00:08:44;;;;;;;58.10;30.58;;;-2.30;99.90;;;;;;5077811;28;20400;-74
2022/12/13 00:11:13;;;;;;;61.77;30.80;;;-2.30;99.90;;;;;;5086352;28;20422;-74
2022/12/13 00:13:40;;;;;;;57.28;29.95;;;-2.40;99.90;;;;;;5088895;28;20405;-74
2022/12/13 00:16:12;;;;;;;57.87;30.17;;;-2.40;99.90;;;;;;5087866;28;20479;-74
2022/12/13 00:18:37;;;;;;;54.00;29.60;;;-2.40;99.90;;;;;;5079816;28;20407;-74
2022/12/13 00:21:05;;;;;;;59.17;31.77;;;-2.40;99.90;;;;;;5087862;28;20436;-74
2022/12/13 00:23:31;;;;;;;59.55;31.10;;;-2.40;99.90;;;;;;5085537;28;20418;-74
2022/12/13 00:26:02;;;;;;;59.95;31.35;;;-2.40;99.90;;;;;;5088881;28;20401;-74
2022/12/13 00:28:27;;;;;;;58.42;30.05;;;-2.40;99.90;;;;;;5089924;28;20394;-74
2022/12/13 00:30:57;;;;;;;55.80;29.53;;;-2.40;99.90;;;;;;5102970;28;20429;-74
2022/12/13 00:33:22;;;;;;;55.85;29.63;;;-2.40;99.90;;;;;;5090121;28;20410;-73
2022/12/13 00:35:48;;;;;;;56.85;30.73;;;-2.40;99.90;;;;;;5084002;28;20442;-74
2022/12/13 00:38:14;;;;;;;56.20;29.23;;;-2.40;99.90;;;;;;5081677;28;20406;-74
2022/12/13 00:40:39;;;;;;;54.03;28.48;;;-2.50;99.90;;;;;;5089200;28;20477;-74
2022/12/13 00:43:05;;;;;;;55.03;28.67;;;-2.50;99.90;;;;;;5089518;28;20494;-74
2022/12/13 00:45:32;;;;;;;53.87;28.67;;;-2.50;99.90;;;;;;5089137;28;20401;-74
2022/12/13 00:47:57;;;;;;;56.95;30.05;;;-2.50;99.90;;;;;;5089747;28;20477;-74
2022/12/13 00:50:23;;;;;;;55.58;29.00;;;-2.50;99.90;;;;;;5089605;28;20539;-74
2022/12/13 00:52:49;;;;;;;53.33;27.98;;;-2.60;99.90;;;;;;5079468;28;20407;-74
2022/12/13 00:55:14;;;;;;;55.07;29.00;;;-2.60;99.90;;;;;;5078404;28;20402;-74
2022/12/13 00:57:40;;;;;;;54.92;29.88;;;-2.60;99.90;;;;;;5089408;28;20398;-74
2022/12/13 01:00:07;;;;;;;55.60;29.85;;;-2.60;99.90;;;;;;5074328;28;20418;-74
2022/12/13 01:02:32;;;;;;;56.55;29.70;;;-2.60;99.90;;;;;;5072372;28;20414;-74
2022/12/13 01:04:58;;;;;;;56.63;28.83;;;-2.60;99.90;;;;;;5078051;28;20398;-74
2022/12/13 01:07:24;;;;;;;57.70;30.50;;;-2.60;99.90;;;;;;5087303;28;20398;-74
2022/12/13 01:09:49;;;;;;;57.73;30.33;;;-2.60;99.90;;;;;;5083377;28;20852;-73
2022/12/13 01:12:15;;;;;;;55.63;29.20;;;-2.60;99.90;;;;;;5081804;28;20426;-74
2022/12/13 01:14:40;;;;;;;58.13;29.65;;;-2.60;99.90;;;;;;5088756;28;21167;-74
2022/12/13 01:17:07;;;;;;;54.47;29.27;;;-2.60;99.90;;;;;;5087383;28;20410;-74
2022/12/13 01:19:32;;;;;;;55.00;29.70;;;-2.60;99.90;;;;;;5087891;28;20954;-74
2022/12/13 01:22:02;;;;;;;56.07;29.87;;;-2.60;99.90;;;;;;5088371;28;20464;-74
2022/12/13 01:24:29;;;;;;;57.53;29.58;;;-2.60;99.90;;;;;;5073729;28;20514;-74
2022/12/13 01:26:54;;;;;;;57.17;29.43;;;-2.60;99.90;;;;;;5081595;28;20412;-74
2022/12/13 01:29:21;;;;;;;56.10;30.80;;;-2.60;99.90;;;;;;5088716;28;20407;-74
2022/12/13 01:31:48;;;;;;;62.38;31.60;;;-2.60;99.90;;;;;;5074696;28;20459;-74
2022/12/13 01:34:16;;;;;;;61.45;31.67;;;-2.60;99.90;;;;;;5086498;28;20408;-74
2022/12/13 01:36:43;;;;;;;55.90;29.33;;;-2.60;99.90;;;;;;5087590;28;20747;-74
2022/12/13 01:39:12;;;;;;;60.22;30.48;;;-2.60;99.90;;;;;;5087061;28;20420;-74
2022/12/13 01:41:39;;;;;;;61.08;31.08;;;-2.60;99.90;;;;;;5086646;28;20410;-74
2022/12/13 01:44:26;;;;;;;59.80;31.25;;;-2.60;99.90;;;;;;5088168;28;20394;-74
2022/12/13 01:46:52;;;;;;;60.28;30.83;;;-2.60;99.90;;;;;;5057338;28;20425;-74
2022/12/13 01:49:18;;;;;;;59.47;30.98;;;-2.60;99.90;;;;;;5079394;28;20403;-73
2022/12/13 01:51:54;;;;;;;58.60;31.35;;;-2.60;99.90;;;;;;5082789;28;20529;-74
2022/12/13 01:54:29;;;;;;;61.83;31.88;;;-2.60;99.90;;;;;;5080831;28;20888;-74
2022/12/13 01:56:57;;;;;;;62.90;31.80;;;-2.60;99.90;;;;;;5086700;28;20410;-74
2022/12/13 01:59:24;;;;;;;61.95;31.80;;;-2.60;99.90;;;;;;5087783;28;20405;-74
2022/12/13 02:01:49;;;;;;;60.25;30.83;;;-2.60;99.90;;;;;;5077653;28;20404;-74
2022/12/13 02:04:25;;;;;;;58.15;29.63;;;-2.60;99.90;;;;;;5088120;28;20393;-74
2022/12/13 02:06:52;;;;;;;61.80;30.70;;;-2.60;99.90;;;;;;5080288;28;20461;-74
2022/12/13 02:09:18;;;;;;;54.83;30.50;;;-2.60;99.90;;;;;;5084142;28;20751;-74
2022/12/13 02:11:45;;;;;;;55.65;29.90;;;-2.70;99.90;;;;;;5080993;28;20437;-74
2022/12/13 02:14:10;;;;;;;53.75;29.48;;;-2.70;99.90;;;;;;5083825;28;20406;-74
2022/12/13 02:16:57;;;;;;;54.07;29.13;;;-2.70;99.90;;;;;;5087893;28;20405;-74
2022/12/13 02:19:56;;;;;;;53.30;28.93;;;-2.70;99.90;;;;;;5086912;28;20406;-74
2022/12/13 02:22:53;;;;;;;59.55;30.45;;;-2.70;99.90;;;;;;5079726;28;20484;-74
2022/12/13 02:25:24;;;;;;;56.70;29.58;;;-2.70;99.90;;;;;;5068239;28;20915;-74
2022/12/13 02:28:21;;;;;;;58.03;30.42;;;-2.70;99.90;;;;;;5074824;28;20402;-74
2022/12/13 02:31:07;;;;;;;60.97;30.27;;;-2.70;99.90;;;;;;5082647;28;20423;-74
2022/12/13 02:33:36;;;;;;;61.38;30.42;;;-2.70;99.90;;;;;;5081575;28;20409;-73
2022/12/13 02:36:27;;;;;;;57.20;29.85;;;-2.70;99.90;;;;;;5070659;28;20423;-73
2022/12/13 02:39:09;;;;;;;51.83;28.55;;;-2.70;99.90;;;;;;5066936;28;20413;-74
2022/12/13 02:41:37;;;;;;;58.72;29.40;;;-2.70;99.90;;;;;;5072540;28;20412;-74
2022/12/13 02:44:07;;;;;;;54.92;29.15;;;-2.80;99.90;;;;;;5085714;28;20485;-74
2022/12/13 02:46:38;;;;;;;55.88;30.25;;;-2.80;99.90;;;;;;5082564;28;20447;-74
2022/12/13 02:49:06;;;;;;;50.47;27.93;;;-2.80;99.90;;;;;;5085949;28;20485;-74
2022/12/13 02:51:33;;;;;;;55.17;28.98;;;-2.80;99.90;;;;;;5082820;28;20428;-74
2022/12/13 02:53:59;;;;;;;53.63;28.27;;;-2.80;99.90;;;;;;5086321;28;20405;-73
2022/12/13 02:56:24;;;;;;;52.57;28.40;;;-2.80;99.90;;;;;;5068012;28;20405;-74
2022/12/13 02:58:54;;;;;;;55.90;30.50;;;-2.80;99.90;;;;;;5084344;28;20453;-74
2022/12/13 03:01:37;;;;;;;56.47;29.42;;;-2.80;99.90;;;;;;5084396;28;20475;-74
2022/12/13 03:04:30;;;;;;;51.08;27.02;;;-2.80;99.90;;;;;;5086470;28;20917;-73
2022/12/13 03:07:03;;;;;;;54.45;29.45;;;-2.80;99.90;;;;;;5073404;28;20917;-74
2022/12/13 03:09:47;;;;;;;58.22;29.58;;;-2.80;99.90;;;;;;5082949;28;20961;-74
2022/12/13 03:15:34;;;;;;;54.53;29.10;;;-2.90;99.90;;;;;;5061716;28;20425;-74
2022/12/13 03:18:14;;;;;;;53.55;28.38;;;-2.90;99.90;;;;;;5078821;28;20412;-74
2022/12/13 03:20:50;;;;;;;52.25;27.45;;;-2.90;99.90;;;;;;5069738;28;20407;-74
2022/12/13 03:23:17;;;;;;;51.47;28.47;;;-2.90;99.90;;;;;;5066149;28;20419;-74
2022/12/13 03:25:44;;;;;;;53.08;28.85;;;-2.90;99.90;;;;;;5069211;28;20450;-74
2022/12/13 03:28:11;;;;;;;55.50;29.17;;;-2.90;99.90;;;;;;5087175;28;20777;-74
2022/12/13 03:30:37;;;;;;;55.35;29.00;;;-2.90;99.90;;;;;;5085290;28;20425;-74
2022/12/13 03:33:03;;;;;;;55.17;29.05;;;-3.00;99.90;;;;;;5086872;28;20406;-74
2022/12/13 03:35:29;;;;;;;55.15;28.55;;;-3.00;99.90;;;;;;5087062;28;20753;-74
2022/12/13 03:37:55;;;;;;;54.65;27.65;;;-3.00;99.90;;;;;;5086222;28;20884;-73
2022/12/13 03:40:21;;;;;;;49.03;27.02;;;-3.10;99.90;;;;;;5084116;28;20477;-74
2022/12/13 03:42:47;;;;;;;51.67;28.35;;;-3.10;99.90;;;;;;5077015;28;20415;-74
2022/12/13 03:45:12;;;;;;;53.55;28.45;;;-3.10;99.90;;;;;;5086120;28;20915;-73
2022/12/13 03:47:38;;;;;;;55.20;28.60;;;-3.10;99.90;;;;;;5080753;28;20463;-73
2022/12/13 03:50:04;;;;;;;55.87;29.33;;;-3.10;99.90;;;;;;5087266;28;20977;-74
2022/12/13 03:52:30;;;;;;;54.60;29.00;;;-3.10;99.90;;;;;;5088969;28;20835;-74
2022/12/13 03:54:56;;;;;;;55.93;28.87;;;-3.10;99.90;;;;;;5074824;28;20421;-74
2022/12/13 03:57:21;;;;;;;54.70;29.35;;;-3.10;99.90;;;;;;5089693;28;20469;-73
2022/12/13 03:59:47;;;;;;;56.00;30.00;;;-3.10;99.90;;;;;;5086413;28;20448;-73
2022/12/13 04:02:12;;;;;;;55.47;29.45;;;-3.10;99.90;;;;;;5084067;28;20410;-73
2022/12/13 04:04:38;;;;;;;57.77;29.53;;;-3.10;99.90;;;;;;5089984;28;20425;-74
2022/12/13 04:07:03;;;;;;;57.33;29.43;;;-3.20;99.90;;;;;;5085948;28;20414;-74
2022/12/13 04:09:29;;;;;;;58.40;29.98;;;-3.20;99.90;;;;;;5089814;28;20398;-74
2022/12/13 04:14:39;;;;;;;56.72;29.48;;;-3.20;99.90;;;;;;5074747;28;20403;-74
2022/12/13 04:17:05;;;;;;;55.27;29.03;;;-3.20;99.90;;;;;;5084111;28;20411;-74
2022/12/13 04:19:30;;;;;;;53.90;29.30;;;-3.30;99.90;;;;;;5088930;28;20496;-74
2022/12/13 04:21:56;;;;;;;55.00;28.67;;;-3.30;99.90;;;;;;5089744;28;20537;-74
2022/12/13 04:24:23;;;;;;;58.63;30.53;;;-3.30;99.90;;;;;;5090103;28;20454;-74
2022/12/13 04:26:48;;;;;;;56.75;29.08;;;-3.30;99.90;;;;;;5085838;28;20405;-74
2022/12/13 04:29:14;;;;;;;57.67;29.58;;;-3.30;99.90;;;;;;5086653;28;20394;-74
2022/12/13 04:31:40;;;;;;;56.77;29.57;;;-3.30;99.90;;;;;;5089088;28;20457;-74
2022/12/13 04:34:05;;;;;;;52.17;29.30;;;-3.30;99.90;;;;;;5089400;28;20462;-74
2022/12/13 04:36:31;;;;;;;50.35;27.23;;;-3.30;99.90;;;;;;5089646;28;20777;-73
2022/12/13 04:38:57;;;;;;;53.00;27.47;;;-3.30;99.90;;;;;;5077415;28;20404;-73
2022/12/13 04:41:22;;;;;;;51.83;28.23;;;-3.30;99.90;;;;;;5083399;28;20907;-74
2022/12/13 04:43:52;;;;;;;52.40;27.77;;;-3.40;99.90;;;;;;5073824;28;20392;-73
2022/12/13 04:46:21;;;;;;;48.58;26.40;;;-3.40;99.90;;;;;;5078897;28;20536;-74
2022/12/13 04:48:47;;;;;;;52.50;27.92;;;-3.40;99.90;;;;;;5075920;28;20404;-74
2022/12/13 04:51:15;;;;;;;49.28;26.80;;;-3.40;99.90;;;;;;5082806;28;20436;-73
2022/12/13 04:53:40;;;;;;;51.60;26.75;;;-3.40;99.90;;;;;;5085339;28;20406;-73
2022/12/13 04:56:06;;;;;;;50.22;26.92;;;-3.50;99.90;;;;;;5083471;28;20433;-73
2022/12/13 04:58:32;;;;;;;53.05;27.88;;;-3.40;99.90;;;;;;5085418;28;20480;-73
2022/12/13 05:00:58;;;;;;;53.00;27.98;;;-3.40;99.90;;;;;;5082171;28;20783;-74
2022/12/13 05:03:23;;;;;;;50.83;26.87;;;-3.40;99.90;;;;;;5084885;28;20760;-74
2022/12/13 05:05:49;;;;;;;51.30;27.00;;;-3.40;99.90;;;;;;5089377;28;20402;-73
2022/12/13 05:08:15;;;;;;;52.33;26.50;;;-3.50;99.90;;;;;;5088992;28;20489;-73
2022/12/13 05:10:40;;;;;;;51.63;27.57;;;-3.50;99.90;;;;;;5081217;28;20419;-74
2022/12/13 05:13:06;;;;;;;47.67;26.13;;;-3.40;99.90;;;;;;5086941;28;20481;-73
2022/12/13 05:15:33;;;;;;;48.22;26.20;;;-3.40;99.90;;;;;;5089683;28;20402;-74
2022/12/13 05:18:00;;;;;;;46.58;25.83;;;-3.40;99.90;;;;;;5079697;28;20420;-73
2022/12/13 05:20:26;;;;;;;51.53;26.63;;;-3.40;99.90;;;;;;5089223;28;20911;-73
2022/12/13 05:22:55;;;;;;;47.33;25.70;;;-3.50;99.90;;;;;;5087497;28;20481;-73
2022/12/13 05:25:20;;;;;;;49.92;26.42;;;-3.40;99.90;;;;;;5088290;28;20468;-73
2022/12/13 05:27:46;;;;;;;52.00;27.83;;;-3.40;99.90;;;;;;5088665;28;20386;-74
2022/12/13 05:30:12;;;;;;;48.73;25.53;;;-3.50;99.90;;;;;;5089786;28;20391;-74
2022/12/13 05:32:38;;;;;;;47.05;27.30;;;-3.50;99.90;;;;;;5083522;28;20988;-73
2022/12/13 05:35:03;;;;;;;48.53;26.80;;;-3.50;99.90;;;;;;5081239;28;20407;-74
2022/12/13 05:37:29;;;;;;;46.88;26.27;;;-3.50;99.90;;;;;;5085741;28;21020;-74
2022/12/13 05:39:55;;;;;;;49.17;27.33;;;-3.50;99.90;;;;;;5080696;28;20802;-74
2022/12/13 05:42:20;;;;;;;48.25;27.05;;;-3.50;99.90;;;;;;5085447;28;20443;-73
2022/12/13 05:44:46;;;;;;;53.65;27.50;;;-3.50;99.90;;;;;;5088817;28;20447;-73
2022/12/13 05:47:11;;;;;;;52.37;27.20;;;-3.60;99.90;;;;;;5088433;28;20422;-73
2022/12/13 05:49:37;;;;;;;50.35;28.35;;;-3.50;99.90;;;;;;5088896;28;20395;-74
2022/12/13 05:52:03;;;;;;;55.10;28.03;;;-3.50;99.90;;;;;;5085470;28;20434;-73
2022/12/13 05:54:28;;;;;;;51.77;28.33;;;-3.60;99.90;;;;;;5069379;28;20404;-73
2022/12/13 05:56:54;;;;;;;52.80;27.75;;;-3.50;99.90;;;;;;5083747;28;20390;-73
2022/12/13 05:59:20;;;;;;;53.30;28.70;;;-3.50;99.90;;;;;;5088400;28;20406;-73
2022/12/13 06:01:45;;;;;;;52.70;28.10;;;-3.50;99.90;;;;;;5073240;28;20443;-73
2022/12/13 06:04:11;;;;;;;49.10;26.73;;;-3.50;99.90;;;;;;5076264;28;20402;-73
2022/12/13 06:06:37;;;;;;;52.15;28.55;;;-3.50;99.90;;;;;;5083717;28;20400;-73
2022/12/13 06:09:03;;;;;;;53.87;28.43;;;-3.50;99.90;;;;;;5069909;28;20747;-73
2022/12/13 06:11:28;;;;;;;48.20;27.20;;;-3.50;99.90;;;;;;5086313;28;20437;-73
2022/12/13 06:13:54;;;;;;;51.45;27.63;;;-3.50;99.90;;;;;;5088426;28;20398;-74
2022/12/13 06:16:19;;;;;;;53.85;27.95;;;-3.60;99.90;;;;;;5087432;28;20410;-73
2022/12/13 06:18:45;;;;;;;52.53;28.57;;;-3.60;99.90;;;;;;5088051;28;20448;-73
2022/12/13 06:21:11;;;;;;;54.50;29.50;;;-3.60;99.90;;;;;;5084338;28;20400;-73
2022/12/13 06:23:36;;;;;;;54.37;28.97;;;-3.60;99.90;;;;;;5088493;28;20800;-73
2022/12/13 06:26:04;;;;;;;50.90;28.13;;;-3.60;99.90;;;;;;5083304;28;20401;-74
2022/12/13 06:28:30;;;;;;;52.25;28.00;;;-3.70;99.90;;;;;;5086779;28;20807;-73
2022/12/13 06:31:02;;;;;;;50.83;28.45;;;-3.70;99.90;;;;;;5077477;28;20414;-74
2022/12/13 06:33:28;;;;;;;49.42;28.13;;;-3.60;99.90;;;;;;5084927;28;20405;-73
2022/12/13 06:35:57;;;;;;;52.72;27.92;;;-3.70;99.90;;;;;;5087631;28;20407;-74
2022/12/13 06:38:26;;;;;;;51.67;27.52;;;-3.60;99.90;;;;;;5087969;28;20398;-73
2022/12/13 06:40:51;;;;;;;51.05;27.80;;;-3.70;99.90;;;;;;5087603;28;20405;-73
2022/12/13 06:43:18;;;;;;;48.17;27.47;;;-3.70;99.90;;;;;;5088007;28;20404;-72
2022/12/13 06:45:44;;;;;;;48.45;27.23;;;-3.70;99.90;;;;;;5082493;28;20489;-73
2022/12/13 06:48:11;;;;;;;49.33;26.63;;;-3.70;99.90;;;;;;5063109;28;20881;-73
2022/12/13 06:50:36;;;;;;;53.13;28.10;;;-3.70;99.90;;;;;;5078583;28;20425;-72
2022/12/13 06:53:02;;;;;;;48.78;27.23;;;-3.80;99.90;;;;;;5084161;28;20461;-73
2022/12/13 06:55:28;;;;;;;50.03;27.70;;;-3.70;99.90;;;;;;5085411;28;20402;-73
2022/12/13 06:57:56;;;;;;;47.53;26.60;;;-3.70;99.90;;;;;;5075583;28;20399;-73
2022/12/13 07:00:22;;;;;;;48.60;27.98;;;-3.70;99.90;;;;;;5083184;28;20495;-73
2022/12/13 07:02:54;;;;;;;47.57;27.73;;;-3.70;99.90;;;;;;5079687;28;20445;-73
2022/12/13 07:05:20;;;;;;;50.13;28.27;;;-3.70;99.90;;;;;;5087544;28;20483;-73
2022/12/13 07:07:46;;;;;;;48.33;26.80;;;-3.70;99.90;;;;;;5076906;28;20404;-73
2022/12/13 07:10:11;;;;;;;51.43;28.63;;;-3.70;99.90;;;;;;5085633;28;20409;-73
2022/12/13 07:12:37;;;;;;;50.73;27.80;;;-3.80;99.90;;;;;;5087038;28;20981;-73
2022/12/13 07:15:03;;;;;;;52.67;28.38;;;-3.80;99.90;;;;;;5084937;28;20480;-73
2022/12/13 07:17:29;;;;;;;52.85;28.15;;;-3.80;99.90;;;;;;5083503;28;20912;-73
2022/12/13 07:19:54;;;;;;;50.10;27.27;;;-3.80;99.90;;;;;;5089229;28;20413;-73
2022/12/13 07:22:20;;;;;;;52.20;27.88;;;-3.80;99.90;;;;;;5089563;28;20459;-73
2022/12/13 07:24:45;;;;;;;49.60;27.10;;;-3.80;99.90;;;;;;5087585;28;20402;-73
2022/12/13 07:27:11;;;;;;;50.97;28.23;;;-3.80;99.90;;;;;;5091246;28;20473;-73
2022/12/13 07:29:36;;;;;;;45.92;26.45;;;-3.90;99.90;;;;;;5089282;28;20497;-73
2022/12/13 07:32:02;;;;;;;49.60;28.20;;;-3.90;99.90;;;;;;5080923;28;20424;-73
2022/12/13 07:34:29;;;;;;;50.22;26.55;;;-3.90;99.90;;;;;;5086636;28;20901;-73
2022/12/13 07:36:54;;;;;;;49.10;27.55;;;-3.90;99.90;;;;;;5091291;28;20402;-73
2022/12/13 07:39:24;;;;;;;52.90;28.53;;;-3.80;99.90;;;;;;5091331;28;20847;-73
2022/12/13 07:41:54;;;;;;;49.83;27.58;;;-3.80;99.90;;;;;;5089838;28;20481;-73
2022/12/13 07:44:19;;;;;;;50.17;28.00;;;-3.90;99.90;;;;;;5088976;28;20489;-73
2022/12/13 07:46:45;;;;;;;50.10;27.00;;;-3.90;99.90;;;;;;5089213;28;20508;-73
2022/12/13 07:49:11;;;;;;;48.83;26.65;;;-3.90;99.90;;;;;;5089319;28;20432;-73
2022/12/13 07:51:36;;;;;;;53.10;28.33;;;-3.90;99.90;;;;;;5090380;28;20821;-74
2022/12/13 07:54:02;;;;;;;49.60;27.40;;;-3.90;99.90;;;;;;5089065;28;20402;-74
2022/12/13 07:56:28;;;;;;;50.40;28.20;;;-3.90;99.90;;;;;;5090632;28;20393;-73
2022/12/13 07:58:53;;;;;;;52.80;29.65;;;-3.80;99.90;;;;;;5090284;28;20834;-74
2022/12/13 08:01:19;;;;;;;52.47;28.65;;;-3.80;99.90;;;;;;5089851;28;20925;-73
2022/12/13 08:03:47;;;;;;;50.53;28.40;;;-3.80;99.90;;;;;;5089103;28;20429;-73
2022/12/13 08:06:13;;;;;;;50.88;28.38;;;-3.80;99.90;;;;;;5087295;28;20406;-73
2022/12/13 08:08:38;;;;;;;49.42;27.30;;;-3.70;99.90;;;;;;5065396;28;20398;-73
2022/12/13 08:11:10;;;;;;;55.25;28.13;;;-3.70;99.90;;;;;;5082027;28;20467;-73
2022/12/13 08:13:37;;;;;;;53.50;28.63;;;-3.70;99.90;;;;;;5089155;28;20402;-73
2022/12/13 08:16:05;;;;;;;54.67;29.35;;;-3.70;99.90;;;;;;5088666;28;20413;-73
2022/12/13 08:18:31;;;;;;;54.15;29.42;;;-3.60;99.90;;;;;;5077735;28;20920;-73
2022/12/13 08:21:05;;;;;;;51.78;28.83;;;-3.60;99.90;;;;;;5088573;28;20500;-73
2022/12/13 08:23:32;;;;;;;52.70;28.43;;;-3.60;99.90;;;;;;5088444;28;20784;-74
2022/12/13 08:25:59;;;;;;;52.55;28.85;;;-3.60;99.90;;;;;;5088188;28;20496;-73
2022/12/13 08:28:26;;;;;;;55.97;29.35;;;-3.60;99.90;;;;;;5090221;28;20406;-73
2022/12/13 08:30:52;;;;;;;52.35;28.85;;;-3.60;99.90;;;;;;5070243;28;20425;-75
2022/12/13 08:33:18;;;;;;;51.90;28.33;;;-3.50;99.90;;;;;;5090459;28;20394;-73
2022/12/13 08:35:44;;;;;;;53.17;29.58;;;-3.50;99.90;;;;;;5073845;28;20404;-74
2022/12/13 08:38:10;;;;;;;49.58;27.58;;;-3.50;99.90;;;;;;5100243;28;20492;-73
2022/12/13 08:40:37;;;;;;;53.38;29.38;;;-3.50;99.90;;;;;;5087840;28;20990;-73
2022/12/13 08:43:03;;;;;;;52.93;28.20;;;-3.50;99.90;;;;;;5073451;28;20412;-73
2022/12/13 08:45:31;;;;;;;57.35;29.70;;;-3.50;99.90;;;;;;5084442;28;20441;-73
2022/12/13 08:48:00;;;;;;;56.72;30.20;;;-3.50;99.90;;;;;;5089452;28;20421;-74
2022/12/13 08:50:27;;;;;;;57.20;29.70;;;-3.40;99.90;;;;;;5089053;28;20432;-74
2022/12/13 08:52:53;;;;;;;55.20;29.58;;;-3.40;99.90;;;;;;5089665;28;20402;-73
2022/12/13 08:55:19;;;;;;;56.05;30.67;;;-3.40;99.90;;;;;;5076946;28;20415;-73
2022/12/13 08:57:45;;;;;;;53.60;30.50;;;-3.40;99.90;;;;;;5082488;28;20400;-74
2022/12/13 09:00:17;;;;;;;60.05;30.80;;;-3.40;99.90;;;;;;5084516;28;20828;-74
2022/12/13 09:02:43;;;;;;;57.33;31.00;;;-3.30;99.90;;;;;;5088116;28;20956;-73
2022/12/13 09:05:09;;;;;;;56.87;31.40;;;-3.30;99.90;;;;;;5089276;28;20409;-73
2022/12/13 09:07:38;;;;;;;59.97;32.45;;;-3.30;99.90;;;;;;5089274;28;20388;-73
2022/12/13 09:10:04;;;;;;;59.92;32.33;;;-3.20;99.90;;;;;;5084291;28;20405;-74
2022/12/13 09:12:30;;;;;;;60.28;32.70;;;-3.20;99.90;;;;;;5087970;28;20847;-73
2022/12/13 09:14:55;;;;;;;64.63;34.00;;;-3.20;99.90;;;;;;5079488;28;20403;-73
2022/12/13 09:17:21;;;;;;;64.07;34.57;;;-3.20;99.90;;;;;;5082289;28;20414;-73
2022/12/13 09:19:46;;;;;;;66.03;34.30;;;-3.10;99.90;;;;;;5088935;28;20773;-74
2022/12/13 09:22:12;;;;;;;63.97;34.00;;;-3.10;99.90;;;;;;5089432;28;20601;-73
2022/12/13 09:24:37;;;;;;;62.25;33.38;;;-3.00;99.90;;;;;;5084392;28;20588;-73
2022/12/13 09:27:04;;;;;;;63.85;35.30;;;-3.00;99.90;;;;;;5081576;28;20410;-73
2022/12/13 09:29:32;;;;;;;70.18;35.35;;;-3.00;99.90;;;;;;5074759;28;20405;-73
2022/12/13 09:31:59;;;;;;;62.75;33.13;;;-2.90;99.90;;;;;;5087924;28;20921;-74
2022/12/13 09:34:24;;;;;;;66.28;34.67;;;-2.90;99.90;;;;;;5087010;28;20894;-73
2022/12/13 09:36:50;;;;;;;63.65;34.58;;;-2.90;99.90;;;;;;5086941;28;20405;-73
2022/12/13 09:39:16;;;;;;;68.73;35.40;;;-2.90;99.90;;;;;;5088515;28;20398;-73
2022/12/13 09:41:46;;;;;;;67.28;35.10;;;-2.80;99.90;;;;;;5086381;28;20747;-73
2022/12/13 09:44:23;;;;;;;65.95;35.42;;;-2.80;99.90;;;;;;5087286;28;20406;-74
2022/12/13 09:46:51;;;;;;;67.10;35.90;;;-2.70;99.90;;;;;;5088403;28;20401;-73
2022/12/13 09:49:20;;;;;;;65.05;35.35;;;-2.70;99.90;;;;;;5074204;28;20548;-73
2022/12/13 09:51:53;;;;;;;67.82;35.88;;;-2.60;99.90;;;;;;5088464;28;20509;-73
2022/12/13 09:54:21;;;;;;;68.15;35.83;;;-2.60;99.90;;;;;;5088769;28;20426;-73
2022/12/13 09:56:51;;;;;;;70.43;35.67;;;-2.60;99.90;;;;;;5087560;28;20414;-73
2022/12/13 09:59:30;;;;;;;67.07;35.67;;;-2.50;99.90;;;;;;5088572;28;21002;-73
2022/12/13 10:02:00;;;;;;;67.38;35.63;;;-2.40;99.90;;;;;;5072635;28;20402;-73
2022/12/13 10:04:27;;;;;;;63.40;35.70;;;-2.40;99.90;;;;;;5082948;28;20886;-73
2022/12/13 10:06:54;;;;;;;66.75;35.90;;;-2.40;99.90;;;;;;5070523;28;20405;-73
2022/12/13 10:09:21;;;;;;;63.38;35.83;;;-2.30;99.90;;;;;;5087492;28;20417;-73
2022/12/13 10:11:52;;;;;;;68.28;36.50;;;-2.20;99.90;;;;;;5087231;28;20425;-73
2022/12/13 10:14:31;;;;;;;67.07;35.47;;;-2.10;99.90;;;;;;5085896;28;20414;-73
2022/12/13 10:17:01;;;;;;;66.10;35.35;;;-2.10;99.90;;;;;;5086258;28;20414;-73
2022/12/13 10:19:34;;;;;;;61.55;34.53;;;-2.00;99.90;;;;;;5086279;28;20417;-73
2022/12/13 10:22:04;;;;;;;62.97;34.00;;;-1.90;99.90;;;;;;5087928;28;20418;-73
2022/12/13 10:24:53;;;;;;;60.30;33.95;;;-1.90;99.90;;;;;;5087587;28;20905;-73
2022/12/13 10:27:37;;;;;;;62.08;33.45;;;-1.80;99.90;;;;;;5086971;28;20410;-73
2022/12/13 10:30:02;;;;;;;58.60;31.55;;;-1.70;99.90;;;;;;5086176;28;20414;-73
2022/12/13 10:32:29;;;;;;;54.72;31.35;;;-1.70;99.90;;;;;;5084012;28;21147;-74
2022/12/13 10:34:55;;;;;;;52.80;30.98;;;-1.60;99.90;;;;;;5085385;28;20409;-73
2022/12/13 10:37:30;;;;;;;57.00;31.73;;;-1.60;99.90;;;;;;5087882;28;20395;-73
2022/12/13 10:39:57;;;;;;;56.58;32.28;;;-1.50;99.90;;;;;;5074036;28;20411;-73
2022/12/13 10:42:24;;;;;;;55.17;32.15;;;-1.50;99.90;;;;;;5085718;28;20398;-73
2022/12/13 10:45:09;;;;;;;54.83;31.13;;;-1.30;99.90;;;;;;5086425;28;20409;-73
2022/12/13 10:47:35;;;;;;;47.28;28.92;;;-1.20;99.90;;;;;;5085403;28;20406;-73
2022/12/13 10:50:01;;;;;;;45.05;27.98;;;-0.90;99.90;;;;;;5087375;28;20489;-73
2022/12/13 10:52:40;;;;;;;48.03;27.97;;;-0.80;99.90;;;;;;5087188;28;20508;-74
2022/12/13 10:55:29;;;;;;;44.17;27.95;;;-0.70;99.90;;;;;;5087167;28;20430;-73
2022/12/13 10:58:08;;;;;;;43.97;26.83;;;-0.70;99.90;;;;;;5079311;28;20398;-74
2022/12/13 11:00:39;;;;;;;44.58;27.17;;;-0.70;99.90;;;;;;5086586;28;20800;-73
2022/12/13 11:03:08;;;;;;;43.72;25.90;;;-0.50;99.90;;;;;;5078250;28;20418;-73
2022/12/13 11:05:36;;;;;;;40.65;25.08;;;-0.40;99.90;;;;;;5087387;28;20452;-74
2022/12/13 11:08:22;;;;;;;39.10;25.35;;;-0.40;99.90;;;;;;5086441;28;20943;-74
2022/12/13 11:11:02;;;;;;;40.13;25.33;;;-0.10;99.90;;;;;;5080566;28;20398;-74
2022/12/13 11:13:35;;;;;;;40.28;24.35;;;0.60;99.90;;;;;;5084718;28;20483;-73
2022/12/13 11:16:02;;;;;;;40.58;24.92;;;1.10;99.90;;;;;;5087005;28;21129;-73
2022/12/13 11:18:35;;;;;;;38.20;23.65;;;1.50;99.90;;;;;;5085953;28;20489;-74
2022/12/13 11:21:03;;;;;;;37.10;23.67;;;1.70;99.90;;;;;;5086844;28;20410;-73
2022/12/13 11:23:31;;;;;;;35.80;22.90;;;1.90;99.90;;;;;;5091503;28;20406;-74
2022/12/13 11:26:00;;;;;;;36.40;23.33;;;2.10;99.90;;;;;;5082577;28;20405;-74
2022/12/13 11:28:39;;;;;;;34.85;22.92;;;2.30;99.90;;;;;;5079312;28;20477;-73
2022/12/13 11:31:18;;;;;;;36.03;23.95;;;2.10;99.90;;;;;;5085902;28;20956;-73
2022/12/13 11:34:16;;;;;;;36.63;23.67;;;1.80;99.90;;;;;;5086942;28;20523;-73
2022/12/13 11:37:12;;;;;;;36.13;23.38;;;1.50;99.90;;;;;;5068929;28;20493;-74
2022/12/13 11:39:44;;;;;;;36.83;23.90;;;1.30;99.90;;;;;;5085212;28;20925;-73
2022/12/13 11:42:20;;;;;;;34.47;23.77;;;1.10;99.90;;;;;;5086944;28;20447;-73
2022/12/13 11:45:24;;;;;;;39.53;24.73;;;0.90;99.90;;;;;;5060394;28;20416;-73
2022/12/13 11:48:11;;;;;;;37.03;24.80;;;0.70;99.90;;;;;;5042463;28;20414;-74
2022/12/13 11:50:44;;;;;;;37.88;23.92;;;0.60;99.90;;;;;;5083903;28;20402;-73
2022/12/13 11:53:20;;;;;;;36.00;23.70;;;0.60;99.90;;;;;;5087058;28;20397;-74
2022/12/13 11:55:58;;;;;;;40.30;24.63;;;0.50;99.90;;;;;;5086863;28;20402;-73
2022/12/13 11:58:36;;;;;;;36.45;24.38;;;0.50;99.90;;;;;;5086847;28;20408;-73
2022/12/13 12:01:10;;;;;;;37.70;24.05;;;0.40;99.90;;;;;;5078427;28;20404;-73
2022/12/13 12:03:42;;;;;;;37.10;24.08;;;0.30;99.90;;;;;;5072808;28;20410;-73
2022/12/13 12:06:15;;;;;;;39.83;24.63;;;0.30;99.90;;;;;;5090740;28;20417;-74
2022/12/13 12:08:45;;;;;;;37.67;23.73;;;0.40;99.90;;;;;;5090590;28;20410;-74
2022/12/13 12:11:20;;;;;;;33.65;22.05;;;0.70;99.90;;;;;;5089085;28;20426;-74
2022/12/13 12:13:54;;;;;;;37.40;22.52;;;1.00;99.90;;;;;;5080470;28;20920;-73
2022/12/13 12:16:36;;;;;;;36.40;22.50;;;1.20;99.90;;;;;;5087586;28;20409;-74
2022/12/13 12:19:02;;;;;;;34.07;21.37;;;1.30;99.90;;;;;;5087512;28;20410;-74
2022/12/13 12:21:44;;;;;;;34.63;22.03;;;1.40;99.90;;;;;;5086536;28;20810;-73
2022/12/13 12:24:22;;;;;;;33.83;21.58;;;1.90;99.90;;;;;;5089164;28;20410;-74
2022/12/13 12:27:05;;;;;;;31.88;20.35;;;2.10;99.90;;;;;;5081202;28;20418;-74
2022/12/13 12:30:00;;;;;;;31.88;20.65;;;2.10;99.90;;;;;;5078965;28;20417;-73
2022/12/13 12:32:40;;;;;;;31.42;20.33;;;2.10;99.90;;;;;;5088240;28;20438;-74
2022/12/13 12:35:44;;;;;;;31.00;19.63;;;2.10;99.90;;;;;;5082113;28;21018;-74
2022/12/13 12:38:17;;;;;;;31.70;20.95;;;2.00;99.90;;;;;;5080467;28;20417;-74
2022/12/13 12:41:01;;;;;;;32.65;21.05;;;1.90;99.90;;;;;;5089043;28;20481;-73
2022/12/13 12:43:31;;;;;;;33.08;22.00;;;1.80;99.90;;;;;;5089126;28;20466;-74
2022/12/13 12:46:12;;;;;;;30.60;20.38;;;1.90;99.90;;;;;;5087735;28;20439;-74